Time,TemperatureF,DewpointF,PressureIn,WindDirection,WindDirectionDegrees,WindSpeedMPH,WindSpeedGustMPH,Humidity,HourlyPrecipIn,Conditions,Clouds,dailyrainin,SoftwareType,DateUTC
2013-06-07 00:05:00,53.0,48.6,30.00,NNE,33,0.0,-999.0,85,0.00,,,0.00,Wunderground v.1.15,2013-06-07 05:05:00,
2013-06-07 00:15:00,52.8,48.7,30.01,North,8,0.0,-999.0,86,0.00,,,0.00,Wunderground v.1.15,2013-06-07 05:15:00,
2013-06-07 00:25:00,52.2,48.1,30.01,North,8,0.0,-999.0,86,0.00,,,0.00,Wunderground v.1.15,2013-06-07 05:25:00,
2013-06-07 00:35:00,51.7,48.3,30.01,WNW,293,0.0,-999.0,88,0.00,,,0.00,Wunderground v.1.15,2013-06-07 05:35:00,
2013-06-07 00:40:00,52.0,48.6,30.01,WNW,293,0.0,-999.0,88,0.00,,,0.00,Wunderground v.1.15,2013-06-07 05:40:00,
2013-06-07 00:50:00,51.8,48.4,30.01,WNW,293,0.0,-999.0,88,0.00,,,0.00,Wunderground v.1.15,2013-06-07 05:50:00,
2013-06-07 00:55:00,51.9,48.8,30.01,WNW,293,0.0,-999.0,89,0.00,,,0.00,Wunderground v.1.15,2013-06-07 05:55:00,
2013-06-07 01:05:00,52.1,48.7,30.01,North,353,0.0,-999.0,88,0.00,,,0.00,Wunderground v.1.15,2013-06-07 06:05:00,
2013-06-07 01:15:00,51.9,48.8,30.01,West,271,0.0,-999.0,89,0.00,,,0.00,Wunderground v.1.15,2013-06-07 06:15:00,
2013-06-07 01:25:00,51.4,48.3,30.01,West,271,0.0,-999.0,89,0.00,,,0.00,Wunderground v.1.15,2013-06-07 06:25:00,
2013-06-07 01:35:00,51.3,48.5,30.01,West,271,0.0,-999.0,90,0.00,,,0.00,Wunderground v.1.15,2013-06-07 06:35:00,
2013-06-07 01:40:00,51.3,48.5,30.01,West,271,0.0,-999.0,90,0.00,,,0.00,Wunderground v.1.15,2013-06-07 06:40:00,
2013-06-07 01:50:00,50.7,47.9,30.01,West,278,0.0,-999.0,90,0.00,,,0.00,Wunderground v.1.15,2013-06-07 06:50:00,
2013-06-07 01:55:00,50.9,48.4,30.01,WNW,295,0.0,-999.0,91,0.00,,,0.00,Wunderground v.1.15,2013-06-07 06:55:00,
2013-06-07 02:05:00,50.6,47.8,30.01,ENE,72,0.0,-999.0,90,0.00,,,0.00,Wunderground v.1.15,2013-06-07 07:05:00,
2013-06-07 02:15:00,50.5,48.0,30.01,ENE,72,0.0,-999.0,91,0.00,,,0.00,Wunderground v.1.15,2013-06-07 07:15:00,
2013-06-07 02:25:00,50.3,48.1,30.01,ENE,72,0.0,-999.0,92,0.00,,,0.00,Wunderground v.1.15,2013-06-07 07:25:00,
2013-06-07 02:35:00,49.8,47.6,30.01,ENE,72,0.0,-999.0,92,0.00,,,0.00,Wunderground v.1.15,2013-06-07 07:35:00,
2013-06-07 02:40:00,49.6,47.1,30.01,ENE,72,0.0,-999.0,91,0.00,,,0.00,Wunderground v.1.15,2013-06-07 07:40:00,
2013-06-07 02:50:00,49.5,47.3,30.01,ENE,72,0.0,-999.0,92,0.00,,,0.00,Wunderground v.1.15,2013-06-07 07:50:00,
2013-06-07 02:55:00,49.2,47.0,30.01,ENE,72,0.0,-999.0,92,0.00,,,0.00,Wunderground v.1.15,2013-06-07 07:55:00,
2013-06-07 03:05:00,49.0,46.8,30.01,ENE,72,0.0,-999.0,92,0.00,,,0.00,Wunderground v.1.15,2013-06-07 08:05:00,
2013-06-07 03:15:00,48.8,46.6,30.01,ENE,72,0.0,-999.0,92,0.00,,,0.00,Wunderground v.1.15,2013-06-07 08:15:00,
2013-06-07 03:25:00,49.0,47.1,30.01,ENE,72,0.0,-999.0,93,0.00,,,0.00,Wunderground v.1.15,2013-06-07 08:25:00,
2013-06-07 03:35:00,48.8,46.9,30.01,ENE,72,0.0,-999.0,93,0.00,,,0.00,Wunderground v.1.15,2013-06-07 08:35:00,
2013-06-07 03:40:00,48.8,46.9,30.01,ENE,72,0.0,-999.0,93,0.00,,,0.00,Wunderground v.1.15,2013-06-07 08:40:00,
2013-06-07 03:50:00,48.6,46.7,30.01,ENE,72,0.0,-999.0,93,0.00,,,0.00,Wunderground v.1.15,2013-06-07 08:50:00,
2013-06-07 03:55:00,48.4,46.5,30.01,ENE,72,0.0,-999.0,93,0.00,,,0.00,Wunderground v.1.15,2013-06-07 08:55:00,
2013-06-07 04:05:00,48.4,46.8,30.01,ENE,72,0.0,-999.0,94,0.00,,,0.00,Wunderground v.1.15,2013-06-07 09:05:00,
2013-06-07 04:15:00,48.2,46.6,30.01,ENE,72,0.0,-999.0,94,0.00,,,0.00,Wunderground v.1.15,2013-06-07 09:15:00,
2013-06-07 04:25:00,47.7,46.1,30.01,ENE,72,0.0,-999.0,94,0.00,,,0.00,Wunderground v.1.15,2013-06-07 09:25:00,
2013-06-07 04:35:00,47.3,45.7,30.01,ENE,72,0.0,-999.0,94,0.00,,,0.00,Wunderground v.1.15,2013-06-07 09:35:00,
2013-06-07 04:40:00,47.3,45.7,30.01,ENE,72,0.0,-999.0,94,0.00,,,0.00,Wunderground v.1.15,2013-06-07 09:40:00,
2013-06-07 04:50:00,47.2,45.6,30.01,ENE,72,0.0,-999.0,94,0.00,,,0.00,Wunderground v.1.15,2013-06-07 09:50:00,
2013-06-07 04:55:00,47.1,45.5,30.02,ENE,72,0.0,-999.0,94,0.00,,,0.00,Wunderground v.1.15,2013-06-07 09:55:00,
2013-06-07 05:05:00,47.0,45.6,30.02,ENE,72,0.0,-999.0,95,0.00,,,0.00,Wunderground v.1.15,2013-06-07 10:05:00,
2013-06-07 05:15:00,46.8,45.4,30.02,ENE,72,0.0,-999.0,95,0.00,,,0.00,Wunderground v.1.15,2013-06-07 10:15:00,
2013-06-07 05:25:00,46.6,45.2,30.02,ENE,72,0.0,-999.0,95,0.00,,,0.00,Wunderground v.1.15,2013-06-07 10:25:00,
2013-06-07 05:35:00,46.3,44.9,30.02,ENE,72,0.0,-999.0,95,0.00,,,0.00,Wunderground v.1.15,2013-06-07 10:35:00,
2013-06-07 05:45:00,46.0,44.6,30.02,ENE,72,0.0,-999.0,95,0.00,,,0.00,Wunderground v.1.15,2013-06-07 10:45:00,
2013-06-07 05:55:00,45.6,44.3,30.02,ENE,72,0.0,-999.0,95,0.00,,,0.00,Wunderground v.1.15,2013-06-07 10:55:00,
2013-06-07 06:05:00,45.4,44.1,30.02,ENE,72,0.0,-999.0,95,0.00,,,0.00,Wunderground v.1.15,2013-06-07 11:05:00,
2013-06-07 06:10:00,45.4,44.1,30.03,ENE,72,0.0,-999.0,95,0.00,,,0.00,Wunderground v.1.15,2013-06-07 11:10:00,
2013-06-07 06:15:00,45.3,44.0,30.03,ENE,72,0.0,-999.0,95,0.00,,,0.00,Wunderground v.1.15,2013-06-07 11:15:00,
2013-06-07 06:25:00,45.1,43.8,30.02,ENE,72,0.0,-999.0,95,0.00,,,0.00,Wunderground v.1.15,2013-06-07 11:25:00,
2013-06-07 06:35:00,45.1,43.8,30.03,ENE,72,0.0,-999.0,95,0.00,,,0.00,Wunderground v.1.15,2013-06-07 11:35:00,
2013-06-07 06:45:00,45.1,43.8,30.03,ENE,72,0.0,-999.0,95,0.00,,,0.00,Wunderground v.1.15,2013-06-07 11:45:00,
2013-06-07 06:55:00,45.2,43.9,30.02,ENE,72,0.0,-999.0,95,0.00,,,0.00,Wunderground v.1.15,2013-06-07 11:55:00,
2013-06-07 07:05:00,45.5,44.4,30.02,ENE,72,0.0,-999.0,96,0.00,,,0.00,Wunderground v.1.15,2013-06-07 12:05:00,
2013-06-07 07:10:00,45.8,44.7,30.02,ENE,72,0.0,-999.0,96,0.00,,,0.00,Wunderground v.1.15,2013-06-07 12:10:00,
2013-06-07 07:20:00,46.4,45.3,30.02,ENE,72,0.0,-999.0,96,0.00,,,0.00,Wunderground v.1.15,2013-06-07 12:20:00,
2013-06-07 07:25:00,46.9,45.8,30.02,ENE,72,0.0,-999.0,96,0.00,,,0.00,Wunderground v.1.15,2013-06-07 12:25:00,
2013-06-07 07:35:00,47.7,46.6,30.02,ENE,72,0.0,-999.0,96,0.00,,,0.00,Wunderground v.1.15,2013-06-07 12:35:00,
2013-06-07 07:45:00,49.3,48.2,30.02,ENE,72,0.0,-999.0,96,0.00,,,0.00,Wunderground v.1.15,2013-06-07 12:45:00,
2013-06-07 07:55:00,50.9,49.5,30.02,South,186,0.0,-999.0,95,0.00,,,0.00,Wunderground v.1.15,2013-06-07 12:55:00,
2013-06-07 08:00:00,52.2,50.8,30.02,South,186,0.0,-999.0,95,0.00,,,0.00,Wunderground v.1.15,2013-06-07 13:00:00,
2013-06-07 08:05:00,53.1,50.5,30.02,South,187,0.0,-999.0,91,0.00,,,0.00,Wunderground v.1.15,2013-06-07 13:05:00,
2013-06-07 08:15:00,55.4,51.3,30.02,South,187,0.0,-999.0,86,0.00,,,0.00,Wunderground v.1.15,2013-06-07 13:15:00,
2013-06-07 08:20:00,56.6,51.2,30.02,South,181,0.0,-999.0,82,0.00,,,0.00,Wunderground v.1.15,2013-06-07 13:20:00,
2013-06-07 08:25:00,57.9,52.1,30.02,South,186,0.0,-999.0,81,0.00,,,0.00,Wunderground v.1.15,2013-06-07 13:25:00,
2013-06-07 08:35:00,57.3,51.2,30.03,SSW,210,0.0,-999.0,80,0.00,,,0.00,Wunderground v.1.15,2013-06-07 13:35:00,
2013-06-07 08:45:00,58.6,51.4,30.03,SW,221,0.0,-999.0,77,0.00,,,0.00,Wunderground v.1.15,2013-06-07 13:45:00,
2013-06-07 08:55:00,60.1,52.1,30.03,ESE,115,0.0,-999.0,75,0.00,,,0.00,Wunderground v.1.15,2013-06-07 13:55:00,
2013-06-07 09:05:00,61.0,52.3,30.03,WNW,287,0.0,-999.0,73,0.00,,,0.00,Wunderground v.1.15,2013-06-07 14:05:00,
2013-06-07 09:15:00,59.8,51.5,30.03,WNW,285,0.0,-999.0,74,0.00,,,0.00,Wunderground v.1.15,2013-06-07 14:15:00,
2013-06-07 09:20:00,60.3,52.0,30.03,SE,136,0.0,-999.0,74,0.00,,,0.00,Wunderground v.1.15,2013-06-07 14:20:00,
2013-06-07 09:25:00,60.9,52.6,30.03,NNE,26,0.0,-999.0,74,0.00,,,0.00,Wunderground v.1.15,2013-06-07 14:25:00,
2013-06-07 09:35:00,61.7,52.2,30.02,ENE,72,0.0,-999.0,71,0.00,,,0.00,Wunderground v.1.15,2013-06-07 14:35:00,
2013-06-07 09:45:00,62.4,52.5,30.02,NE,55,0.0,-999.0,70,0.00,,,0.00,Wunderground v.1.15,2013-06-07 14:45:00,
2013-06-07 09:55:00,63.0,52.3,30.02,NW,312,0.0,-999.0,68,0.00,,,0.00,Wunderground v.1.15,2013-06-07 14:55:00,
2013-06-07 10:05:00,64.1,53.3,30.01,NNW,333,0.0,-999.0,68,0.00,,,0.00,Wunderground v.1.15,2013-06-07 15:05:00,
2013-06-07 10:15:00,65.2,52.7,30.01,WNW,297,0.0,-999.0,64,0.00,,,0.00,Wunderground v.1.15,2013-06-07 15:15:00,
2013-06-07 10:25:00,66.2,52.8,30.00,NW,314,0.0,-999.0,62,0.00,,,0.00,Wunderground v.1.15,2013-06-07 15:25:00,
2013-06-07 10:35:00,66.7,53.7,30.00,West,268,1.0,-999.0,63,0.00,,,0.00,Wunderground v.1.15,2013-06-07 15:35:00,
2013-06-07 10:45:00,67.6,52.3,30.00,NNW,338,0.0,-999.0,58,0.00,,,0.00,Wunderground v.1.15,2013-06-07 15:45:00,
2013-06-07 10:55:00,68.7,53.3,29.99,West,271,0.0,-999.0,58,0.00,,,0.00,Wunderground v.1.15,2013-06-07 15:55:00,
2013-06-07 11:05:00,68.7,50.9,29.99,NW,316,1.0,-999.0,53,0.00,,,0.00,Wunderground v.1.15,2013-06-07 16:05:00,
2013-06-07 11:15:00,69.3,50.4,29.99,West,266,1.0,-999.0,51,0.00,,,0.00,Wunderground v.1.15,2013-06-07 16:15:00,
2013-06-07 11:25:00,70.6,50.0,29.99,SE,143,0.0,-999.0,48,0.00,,,0.00,Wunderground v.1.15,2013-06-07 16:25:00,
2013-06-07 11:30:00,70.9,49.1,29.99,NW,316,0.0,-999.0,46,0.00,,,0.00,Wunderground v.1.15,2013-06-07 16:30:00,
2013-06-07 11:35:00,70.9,49.1,29.99,NNE,22,0.0,-999.0,46,0.00,,,0.00,Wunderground v.1.15,2013-06-07 16:35:00,
2013-06-07 11:45:00,70.5,49.3,29.99,ENE,61,1.0,-999.0,47,0.00,,,0.00,Wunderground v.1.15,2013-06-07 16:45:00,
2013-06-07 11:55:00,71.6,48.5,29.98,SSW,202,1.0,-999.0,44,0.00,,,0.00,Wunderground v.1.15,2013-06-07 16:55:00,
2013-06-07 12:05:00,71.9,48.8,29.98,ENE,70,0.0,-999.0,44,0.00,,,0.00,Wunderground v.1.15,2013-06-07 17:05:00,
2013-06-07 12:15:00,72.1,48.4,29.97,WNW,293,0.0,-999.0,43,0.00,,,0.00,Wunderground v.1.15,2013-06-07 17:15:00,
2013-06-07 12:25:00,71.6,49.1,29.97,NW,307,1.0,-999.0,45,0.00,,,0.00,Wunderground v.1.15,2013-06-07 17:25:00,
2013-06-07 12:35:00,71.5,47.8,29.97,West,275,1.0,-999.0,43,0.00,,,0.00,Wunderground v.1.15,2013-06-07 17:35:00,
2013-06-07 12:40:00,72.1,49.0,29.96,SE,130,1.0,-999.0,44,0.00,,,0.00,Wunderground v.1.15,2013-06-07 17:40:00,
2013-06-07 12:50:00,72.7,49.5,29.96,SSE,153,2.0,-999.0,44,0.00,,,0.00,Wunderground v.1.15,2013-06-07 17:50:00,
2013-06-07 12:55:00,73.0,48.5,29.95,NE,54,2.0,-999.0,42,0.00,,,0.00,Wunderground v.1.15,2013-06-07 17:55:00,
2013-06-07 13:05:00,73.5,48.4,29.95,SSE,165,1.0,-999.0,41,0.00,,,0.00,Wunderground v.1.15,2013-06-07 18:05:00,
2013-06-07 13:15:00,74.7,49.4,29.95,West,270,0.0,-999.0,41,0.00,,,0.00,Wunderground v.1.15,2013-06-07 18:15:00,
2013-06-07 13:25:00,74.6,48.7,29.94,West,278,1.0,-999.0,40,0.00,,,0.00,Wunderground v.1.15,2013-06-07 18:25:00,
2013-06-07 13:35:00,74.6,50.0,29.94,NE,44,1.0,-999.0,42,0.00,,,0.00,Wunderground v.1.15,2013-06-07 18:35:00,
2013-06-07 13:45:00,74.5,47.9,29.94,SE,138,1.0,-999.0,39,0.00,,,0.00,Wunderground v.1.15,2013-06-07 18:45:00,
2013-06-07 13:50:00,73.7,48.5,29.94,NNE,33,1.0,-999.0,41,0.00,,,0.00,Wunderground v.1.15,2013-06-07 18:50:00,
2013-06-07 14:00:00,74.5,49.2,29.93,WNW,289,0.0,-999.0,41,0.00,,,0.00,Wunderground v.1.15,2013-06-07 19:00:00,
2013-06-07 14:05:00,74.7,49.4,29.93,WNW,294,1.0,-999.0,41,0.00,,,0.00,Wunderground v.1.15,2013-06-07 19:05:00,
2013-06-07 14:15:00,74.3,48.4,29.93,West,259,1.0,-999.0,40,0.00,,,0.00,Wunderground v.1.15,2013-06-07 19:15:00,
2013-06-07 14:25:00,75.7,49.7,29.92,East,100,0.0,-999.0,40,0.00,,,0.00,Wunderground v.1.15,2013-06-07 19:25:00,
2013-06-07 14:35:00,76.9,49.4,29.91,West,278,0.0,-999.0,38,0.00,,,0.00,Wunderground v.1.15,2013-06-07 19:35:00,
2013-06-07 14:45:00,75.5,48.8,29.91,WNW,291,2.0,-999.0,39,0.00,,,0.00,Wunderground v.1.15,2013-06-07 19:45:00,
2013-06-07 15:00:00,76.3,48.1,29.90,East,89,1.0,-999.0,37,0.00,,,0.00,Wunderground v.1.15,2013-06-07 20:00:00,
2013-06-07 15:10:00,77.2,48.9,29.90,West,259,1.0,-999.0,37,0.00,,,0.00,Wunderground v.1.15,2013-06-07 20:10:00,
2013-06-07 15:15:00,77.6,50.0,29.90,SE,126,0.0,-999.0,38,0.00,,,0.00,Wunderground v.1.15,2013-06-07 20:15:00,
2013-06-07 15:25:00,77.1,48.1,29.90,WNW,295,1.0,-999.0,36,0.00,,,0.00,Wunderground v.1.15,2013-06-07 20:25:00,
2013-06-07 15:35:00,78.0,47.4,29.90,SW,224,0.0,-999.0,34,0.00,,,0.00,Wunderground v.1.15,2013-06-07 20:35:00,
2013-06-07 15:45:00,77.9,47.3,29.89,ESE,115,2.0,-999.0,34,0.00,,,0.00,Wunderground v.1.15,2013-06-07 20:45:00,
2013-06-07 15:55:00,77.5,46.9,29.89,ENE,68,1.0,-999.0,34,0.00,,,0.00,Wunderground v.1.15,2013-06-07 20:55:00,
2013-06-07 16:00:00,77.3,46.7,29.89,East,100,1.0,-999.0,34,0.00,,,0.00,Wunderground v.1.15,2013-06-07 21:00:00,
2013-06-07 16:10:00,78.1,48.2,29.88,SE,145,1.0,-999.0,35,0.00,,,0.00,Wunderground v.1.15,2013-06-07 21:10:00,
2013-06-07 16:20:00,77.6,47.0,29.88,East,99,1.0,-999.0,34,0.00,,,0.00,Wunderground v.1.15,2013-06-07 21:20:00,
2013-06-07 16:25:00,77.3,47.5,29.87,SW,224,1.0,-999.0,35,0.00,,,0.00,Wunderground v.1.15,2013-06-07 21:25:00,
2013-06-07 16:35:00,77.3,47.5,29.87,East,91,1.0,-999.0,35,0.00,,,0.00,Wunderground v.1.15,2013-06-07 21:35:00,
2013-06-07 16:45:00,77.9,48.0,29.87,SSE,148,1.0,-999.0,35,0.00,,,0.00,Wunderground v.1.15,2013-06-07 21:45:00,
2013-06-07 17:00:00,79.4,46.1,29.87,SSW,204,0.0,-999.0,31,0.00,,,0.00,Wunderground v.1.15,2013-06-07 22:00:00,
2013-06-07 17:10:00,79.4,45.3,29.86,West,262,0.0,-999.0,30,0.00,,,0.00,Wunderground v.1.15,2013-06-07 22:10:00,
2013-06-07 17:15:00,79.4,45.3,29.86,ESE,114,0.0,-999.0,30,0.00,,,0.00,Wunderground v.1.15,2013-06-07 22:15:00,
2013-06-07 17:25:00,78.5,44.5,29.86,SE,129,1.0,-999.0,30,0.00,,,0.00,Wunderground v.1.15,2013-06-07 22:25:00,
2013-06-07 17:35:00,79.0,44.9,29.85,NW,311,0.0,-999.0,30,0.00,,,0.00,Wunderground v.1.15,2013-06-07 22:35:00,
2013-06-07 17:45:00,78.3,45.2,29.85,NNW,347,1.0,-999.0,31,0.00,,,0.00,Wunderground v.1.15,2013-06-07 22:45:00,
2013-06-07 17:55:00,78.2,45.1,29.84,SSE,163,0.0,-999.0,31,0.00,,,0.00,Wunderground v.1.15,2013-06-07 22:55:00,
2013-06-07 18:10:00,78.1,45.0,29.84,NW,314,1.0,-999.0,31,0.00,,,0.00,Wunderground v.1.15,2013-06-07 23:10:00,
2013-06-07 18:15:00,78.3,43.4,29.84,SW,214,1.0,-999.0,29,0.00,,,0.00,Wunderground v.1.15,2013-06-07 23:15:00,
2013-06-07 18:20:00,78.1,45.8,29.83,NE,41,1.0,-999.0,32,0.00,,,0.00,Wunderground v.1.15,2013-06-07 23:20:00,
2013-06-07 18:30:00,77.2,45.0,29.83,SE,127,1.0,-999.0,32,0.00,,,0.00,Wunderground v.1.15,2013-06-07 23:30:00,
2013-06-07 18:35:00,77.2,45.0,29.82,WSW,250,1.0,-999.0,32,0.00,,,0.00,Wunderground v.1.15,2013-06-07 23:35:00,
2013-06-07 18:45:00,76.9,44.8,29.82,SSW,210,1.0,-999.0,32,0.00,,,0.00,Wunderground v.1.15,2013-06-07 23:45:00,
2013-06-07 18:55:00,76.4,45.2,29.82,SE,124,0.0,-999.0,33,0.00,,,0.00,Wunderground v.1.15,2013-06-07 23:55:00,
2013-06-07 19:05:00,76.1,44.9,29.82,SE,142,0.0,-999.0,33,0.00,,,0.00,Wunderground v.1.15,2013-06-08 00:05:00,
2013-06-07 19:15:00,76.0,44.8,29.82,SSE,162,0.0,-999.0,33,0.00,,,0.00,Wunderground v.1.15,2013-06-08 00:15:00,
2013-06-07 19:20:00,75.9,46.3,29.82,SE,135,0.0,-999.0,35,0.00,,,0.00,Wunderground v.1.15,2013-06-08 00:20:00,
2013-06-07 19:30:00,76.0,45.6,29.81,SW,222,1.0,-999.0,34,0.00,,,0.00,Wunderground v.1.15,2013-06-08 00:30:00,
2013-06-07 19:35:00,75.8,46.2,29.81,ESE,115,1.0,-999.0,35,0.00,,,0.00,Wunderground v.1.15,2013-06-08 00:35:00,
2013-06-07 19:45:00,75.5,47.4,29.81,SSE,160,0.0,-999.0,37,0.00,,,0.00,Wunderground v.1.15,2013-06-08 00:45:00,
2013-06-07 20:10:00,74.7,49.4,29.81,SSE,160,0.0,-999.0,41,0.00,,,0.00,Wunderground v.1.15,2013-06-08 01:10:00,
2013-06-07 20:15:00,74.4,49.2,29.81,WSW,257,0.0,-999.0,41,0.00,,,0.00,Wunderground v.1.15,2013-06-08 01:15:00,
2013-06-07 20:20:00,74.1,49.5,29.81,SW,218,0.0,-999.0,42,0.00,,,0.00,Wunderground v.1.15,2013-06-08 01:20:00,
2013-06-07 20:35:00,72.7,50.7,29.81,ESE,105,0.0,-999.0,46,0.00,,,0.00,Wunderground v.1.15,2013-06-08 01:35:00,
2013-06-07 20:45:00,71.8,51.0,29.81,SSE,160,0.0,-999.0,48,0.00,,,0.00,Wunderground v.1.15,2013-06-08 01:45:00,
2013-06-07 20:55:00,70.5,52.0,29.81,SSE,160,0.0,-999.0,52,0.00,,,0.00,Wunderground v.1.15,2013-06-08 01:55:00,
2013-06-07 21:05:00,69.5,50.0,29.81,SE,136,0.0,-999.0,50,0.00,,,0.00,Wunderground v.1.15,2013-06-08 02:05:00,
2013-06-07 21:15:00,68.5,49.7,29.81,NE,41,0.0,-999.0,51,0.00,,,0.00,Wunderground v.1.15,2013-06-08 02:15:00,
2013-06-07 21:25:00,68.2,49.4,29.80,ENE,60,0.0,-999.0,51,0.00,,,0.00,Wunderground v.1.15,2013-06-08 02:25:00,
2013-06-07 21:30:00,67.9,49.1,29.80,SE,126,0.0,-999.0,51,0.00,,,0.00,Wunderground v.1.15,2013-06-08 02:30:00,
2013-06-07 21:35:00,67.7,49.4,29.80,ESE,103,0.0,-999.0,52,0.00,,,0.00,Wunderground v.1.15,2013-06-08 02:35:00,
2013-06-07 21:50:00,66.5,49.8,29.80,East,85,0.0,-999.0,55,0.00,,,0.00,Wunderground v.1.15,2013-06-08 02:50:00,
2013-06-07 22:00:00,66.0,49.8,29.79,ESE,120,0.0,-999.0,56,0.00,,,0.00,Wunderground v.1.15,2013-06-08 03:00:00,
2013-06-07 22:05:00,65.9,49.8,29.79,ESE,118,0.0,-999.0,56,0.00,,,0.00,Wunderground v.1.15,2013-06-08 03:05:00,
2013-06-07 22:25:00,65.0,50.3,29.79,ESE,119,0.0,-999.0,59,0.00,,,0.00,Wunderground v.1.15,2013-06-08 03:25:00,
2013-06-07 22:40:00,65.1,50.9,29.80,East,81,0.0,-999.0,60,0.00,,,0.00,Wunderground v.1.15,2013-06-08 03:40:00,
2013-06-07 22:45:00,65.3,50.6,29.80,ESE,119,0.0,-999.0,59,0.00,,,0.00,Wunderground v.1.15,2013-06-08 03:45:00,
2013-06-07 22:55:00,65.6,50.9,29.80,ESE,107,0.0,-999.0,59,0.00,,,0.00,Wunderground v.1.15,2013-06-08 03:55:00,
2013-06-07 23:05:00,65.5,50.8,29.79,SE,134,0.0,-999.0,59,0.00,,,0.00,Wunderground v.1.15,2013-06-08 04:05:00,
2013-06-07 23:10:00,65.2,51.0,29.79,ESE,118,0.0,-999.0,60,0.00,,,0.00,Wunderground v.1.15,2013-06-08 04:10:00,
2013-06-07 23:15:00,65.0,50.8,29.79,SE,141,0.0,-999.0,60,0.00,,,0.00,Wunderground v.1.15,2013-06-08 04:15:00,
2013-06-07 23:25:00,64.5,50.3,29.79,SE,141,0.0,-999.0,60,0.00,,,0.00,Wunderground v.1.15,2013-06-08 04:25:00,
2013-06-07 23:35:00,64.2,49.6,29.79,SE,124,0.0,-999.0,59,0.00,,,0.00,Wunderground v.1.15,2013-06-08 04:35:00,
2013-06-07 23:40:00,64.2,49.1,29.78,SSE,151,1.0,-999.0,58,0.00,,,0.00,Wunderground v.1.15,2013-06-08 04:40:00,
2013-06-07 23:45:00,64.2,48.6,29.78,East,93,1.0,-999.0,57,0.00,,,0.00,Wunderground v.1.15,2013-06-08 04:45:00,
2013-06-07 23:55:00,64.2,48.6,29.78,SSE,160,1.0,-999.0,57,0.00,,,0.00,Wunderground v.1.15,2013-06-08 04:55:00,